Terminal Aerodrome Forecast
Issued by NWS

Home | Current Version | Previous Version | Text Only | Print | Product List | Glossary On
Versions: 1 2 3 4 5 6 7 8 9 10 11 12 13 14 15 16 17 18 19
000
FTUS46 KSEW 010900 AAA
TAFBFI
TAF AMD
KBFI 010909Z 0109/0206 20005KT P6SM FEW022 BKN080
     FM011100 18005KT P6SM OVC022
     FM011700 22005KT P6SM BKN040
     FM011900 24005KT P6SM SCT050
     FM012300 36005KT P6SM BKN050=

USA.gov is the U.S. government's official web portal to all federal, state and local government web resources and services.